createdAt,value
2023-05-19T00:00:15.575Z,101682.00
2023-05-19T00:02:45.131Z,101681.06
2023-05-19T00:05:15.990Z,101656.31
2023-05-19T00:07:46.388Z,101673.16
2023-05-19T00:10:17.025Z,101686.47
2023-05-19T00:12:46.207Z,101661.38
2023-05-19T00:15:15.530Z,101682.50
2023-05-19T00:17:44.486Z,101693.03
2023-05-19T00:20:14.288Z,101693.94
2023-05-19T00:22:45.019Z,101667.78
2023-05-19T00:25:14.088Z,101688.81
2023-05-19T00:27:43.159Z,101668.91
2023-05-19T00:30:12.262Z,101671.50
2023-05-19T00:32:41.239Z,101660.28
2023-05-19T00:35:10.498Z,101680.41
2023-05-19T00:37:39.477Z,101599.47
2023-05-19T00:40:09.258Z,101657.75
2023-05-19T00:42:38.318Z,101688.22
2023-05-19T00:45:07.905Z,101666.44
2023-05-19T00:47:36.971Z,101675.09
2023-05-19T00:50:06.333Z,101614.97
2023-05-19T00:52:35.448Z,101663.50
2023-05-19T00:55:04.433Z,101665.88
2023-05-19T00:57:36.109Z,101666.47
2023-05-19T01:00:06.549Z,101604.59
2023-05-19T01:02:36.355Z,101664.06
2023-05-19T01:05:05.451Z,101665.25
2023-05-19T01:07:35.309Z,101653.75
2023-05-19T01:10:05.045Z,101597.69
2023-05-19T01:12:33.930Z,101604.91
2023-05-19T01:15:07.570Z,101671.91
2023-05-19T01:17:57.730Z,101673.59
2023-05-19T01:20:51.589Z,101661.66
2023-05-19T01:23:29.698Z,101674.88
2023-05-19T01:26:41.058Z,101655.06
2023-05-19T01:29:28.273Z,101666.59
2023-05-19T01:32:01.341Z,101658.50
2023-05-19T01:34:32.583Z,101671.06
2023-05-19T01:37:03.793Z,101647.00
2023-05-19T01:39:34.499Z,101648.38
2023-05-19T01:42:05.172Z,101673.59
2023-05-19T01:44:35.238Z,101664.72
2023-05-19T01:47:04.783Z,101644.97
2023-05-19T01:49:33.814Z,101608.03
2023-05-19T01:52:02.884Z,101648.47
2023-05-19T01:54:31.834Z,101639.53
2023-05-19T01:57:22.424Z,101663.16
2023-05-19T02:00:13.075Z,101661.34
2023-05-19T02:02:57.050Z,101663.38
2023-05-19T02:05:54.478Z,101646.06
2023-05-19T02:08:35.421Z,101666.16
2023-05-19T02:11:27.586Z,101648.13
2023-05-19T02:13:58.050Z,101637.94
2023-05-19T02:16:29.910Z,101641.75
2023-05-19T02:19:00.364Z,101648.16
2023-05-19T02:21:29.212Z,101595.56
2023-05-19T02:23:58.195Z,101644.56
2023-05-19T02:26:27.086Z,101659.47
2023-05-19T02:28:56.050Z,101637.44
2023-05-19T02:31:26.372Z,101621.28
2023-05-19T02:33:55.228Z,101649.28
2023-05-19T02:36:24.218Z,101593.44
2023-05-19T02:38:53.090Z,101653.59
2023-05-19T02:41:23.115Z,101648.31
2023-05-19T02:43:52.100Z,101655.44
2023-05-19T02:46:21.668Z,101634.50
2023-05-19T02:48:50.651Z,101637.34
2023-05-19T02:51:19.480Z,101647.78
2023-05-19T02:53:48.294Z,101645.22
2023-05-19T02:56:17.373Z,101632.38
2023-05-19T02:58:46.287Z,101642.50
2023-05-19T03:01:15.834Z,101633.94
2023-05-19T03:03:44.965Z,101654.66
2023-05-19T03:06:15.098Z,101649.34
2023-05-19T03:08:44.199Z,101588.91
2023-05-19T03:11:13.630Z,101632.78
2023-05-19T03:13:42.654Z,101643.06
2023-05-19T03:16:12.758Z,101627.41
2023-05-19T03:18:42.960Z,101589.75
2023-05-19T03:21:12.124Z,101629.94
2023-05-19T03:23:41.411Z,101627.59
2023-05-19T03:26:11.476Z,101647.72
2023-05-19T03:28:40.446Z,101643.06
2023-05-19T03:31:09.312Z,101634.44
2023-05-19T03:33:40.576Z,101620.22
2023-05-19T03:36:09.766Z,101639.47
2023-05-19T03:38:42.934Z,101636.75
2023-05-19T03:41:11.871Z,101630.09
2023-05-19T03:43:40.713Z,101624.03
2023-05-19T03:46:11.397Z,101616.00
2023-05-19T03:48:57.726Z,101649.25
2023-05-19T03:51:39.566Z,101580.94
2023-05-19T03:54:23.273Z,101633.06
2023-05-19T03:56:52.906Z,101632.28
2023-05-19T03:59:21.946Z,101616.84
2023-05-19T04:01:51.645Z,101646.34
2023-05-19T04:04:20.806Z,101613.31
2023-05-19T04:06:49.954Z,101576.75
2023-05-19T04:09:20.273Z,101620.00
2023-05-19T04:11:48.971Z,101621.19
2023-05-19T04:14:18.000Z,101611.84
2023-05-19T04:16:46.766Z,101635.41
2023-05-19T04:19:15.752Z,101616.31
2023-05-19T04:21:44.524Z,101613.88
2023-05-19T04:24:13.633Z,101620.53
2023-05-19T04:26:46.648Z,101618.09
2023-05-19T04:29:18.811Z,101616.19
2023-05-19T04:31:48.006Z,101624.75
2023-05-19T04:34:20.622Z,101615.91
2023-05-19T04:36:53.073Z,101617.47
2023-05-19T04:39:25.716Z,101629.31
2023-05-19T04:41:55.184Z,101599.06
2023-05-19T04:44:25.505Z,101601.06
2023-05-19T04:46:54.911Z,101645.44
2023-05-19T04:49:25.215Z,101616.00
2023-05-19T04:51:55.799Z,101605.94
2023-05-19T04:54:29.512Z,101609.69
2023-05-19T04:56:58.607Z,101618.50
2023-05-19T04:59:30.418Z,101590.72
2023-05-19T05:01:59.872Z,101598.38
2023-05-19T05:04:31.456Z,101609.78
2023-05-19T05:07:00.472Z,101619.56
2023-05-19T05:09:30.674Z,101576.78
2023-05-19T05:12:02.862Z,101589.31
2023-05-19T05:14:32.440Z,101612.53
2023-05-19T05:17:02.337Z,101601.13
2023-05-19T05:19:32.284Z,101593.97
2023-05-19T05:22:01.759Z,101607.44
2023-05-19T05:24:32.659Z,101598.00
2023-05-19T05:27:04.789Z,101590.56
2023-05-19T05:29:34.785Z,101606.16
2023-05-19T05:32:05.820Z,101610.44
2023-05-19T05:34:36.481Z,101579.38
2023-05-19T05:37:06.743Z,101595.72
2023-05-19T05:39:36.798Z,101600.09
2023-05-19T05:42:06.687Z,101599.53
2023-05-19T05:44:36.439Z,101601.06
2023-05-19T05:47:07.406Z,101576.69
2023-05-19T05:49:39.030Z,101596.19
2023-05-19T05:52:10.266Z,101592.44
2023-05-19T05:54:44.782Z,101525.63
2023-05-19T05:57:16.364Z,101530.53
2023-05-19T05:59:47.904Z,101581.06
2023-05-19T06:02:19.040Z,101577.56
2023-05-19T06:04:48.028Z,101571.34
2023-05-19T06:07:16.935Z,101576.91
2023-05-19T06:09:46.754Z,101572.09
2023-05-19T06:12:16.970Z,101539.31
2023-05-19T06:14:49.661Z,101533.16
2023-05-19T06:17:55.237Z,101540.13
2023-05-19T06:20:24.369Z,101553.03
2023-05-19T06:22:53.190Z,101541.59
2023-05-19T06:25:25.505Z,101543.81
2023-05-19T06:27:55.186Z,101529.78
2023-05-19T06:30:27.371Z,101532.19
2023-05-19T06:33:19.397Z,101520.13
2023-05-19T06:35:48.484Z,101533.66
2023-05-19T06:38:17.644Z,101534.94
2023-05-19T06:40:46.484Z,101502.94
2023-05-19T06:43:15.672Z,101455.25
2023-05-19T06:45:58.262Z,101522.81
2023-05-19T06:48:27.653Z,101527.84
2023-05-19T06:50:57.224Z,101536.53
2023-05-19T06:53:26.793Z,101511.69
2023-05-19T06:56:00.022Z,101493.66
2023-05-19T06:58:33.927Z,101499.19
2023-05-19T07:01:06.004Z,101494.19
2023-05-19T07:03:41.013Z,101503.13
2023-05-19T07:06:10.948Z,101507.31
2023-05-19T07:08:39.712Z,101512.09
2023-05-19T07:11:09.892Z,101502.19
2023-05-19T07:13:39.180Z,101500.03
2023-05-19T07:16:08.229Z,101504.09
2023-05-19T07:18:37.244Z,101477.88
2023-05-19T07:21:06.396Z,101475.31
2023-05-19T07:23:35.491Z,101491.34
2023-05-19T07:26:04.284Z,101475.97
2023-05-19T07:28:35.196Z,101479.56
2023-05-19T07:31:04.108Z,101430.59
2023-05-19T07:33:33.004Z,101476.19
2023-05-19T07:36:01.853Z,101474.19
2023-05-19T07:38:35.224Z,101467.19
2023-05-19T07:41:04.328Z,101462.72
2023-05-19T07:43:33.372Z,101449.88
2023-05-19T07:46:02.250Z,101462.59
2023-05-19T07:48:34.452Z,101449.25
2023-05-19T07:51:03.595Z,101441.94
2023-05-19T07:53:32.550Z,101438.00
2023-05-19T07:56:01.765Z,101454.91
2023-05-19T07:58:30.809Z,101427.44
2023-05-19T08:01:00.472Z,101441.84
2023-05-19T08:03:31.394Z,101439.00
2023-05-19T08:06:00.385Z,101430.63
2023-05-19T08:08:29.086Z,101420.97
2023-05-19T08:10:57.903Z,101436.00
2023-05-19T08:13:26.838Z,101418.38
2023-05-19T08:16:00.390Z,101423.16
2023-05-19T08:18:29.427Z,101419.41
2023-05-19T08:20:58.185Z,101411.03
2023-05-19T08:23:27.343Z,101398.38
2023-05-19T08:25:56.552Z,101414.94
2023-05-19T08:28:25.664Z,101392.72
2023-05-19T08:30:54.412Z,101396.84
2023-05-19T08:33:23.718Z,101414.69
2023-05-19T08:35:56.407Z,101389.03
2023-05-19T08:38:26.934Z,101407.59
2023-05-19T08:40:56.215Z,101355.22
2023-05-19T08:43:25.058Z,101344.59
2023-05-19T08:45:54.985Z,101405.06
2023-05-19T08:48:24.270Z,101377.97
2023-05-19T08:51:26.684Z,101390.34
2023-05-19T08:54:03.191Z,101383.31
2023-05-19T08:56:35.505Z,101317.78
2023-05-19T08:59:04.800Z,101385.97
2023-05-19T09:01:34.207Z,101368.81
2023-05-19T09:04:07.555Z,101363.84
2023-05-19T09:06:36.402Z,101371.59
2023-05-19T09:09:09.285Z,101355.69
2023-05-19T09:11:38.611Z,101364.63
2023-05-19T09:14:07.563Z,101375.97
2023-05-19T09:16:36.442Z,101375.53
2023-05-19T09:19:05.478Z,101365.72
2023-05-19T09:21:34.601Z,101363.84
2023-05-19T09:24:07.616Z,101360.25
2023-05-19T09:26:44.132Z,101359.50
2023-05-19T09:29:17.848Z,101364.97
2023-05-19T09:32:06.857Z,101338.78
2023-05-19T09:34:43.013Z,101348.75
2023-05-19T09:37:14.193Z,101349.53
2023-05-19T09:39:49.342Z,101345.91
2023-05-19T09:42:19.918Z,101345.06
2023-05-19T09:44:49.094Z,101337.91
2023-05-19T09:47:18.201Z,101315.56
2023-05-19T09:49:53.322Z,101325.56
2023-05-19T09:52:22.865Z,101311.13
2023-05-19T09:54:52.623Z,101314.38
2023-05-19T09:57:30.261Z,101308.38
2023-05-19T10:00:01.148Z,101317.47
2023-05-19T10:02:33.949Z,101323.78
2023-05-19T10:05:05.397Z,101306.22
2023-05-19T10:07:35.408Z,101309.44
2023-05-19T10:10:04.488Z,101252.41
2023-05-19T10:12:34.242Z,101298.16
2023-05-19T10:15:04.084Z,101299.66
2023-05-19T10:17:35.510Z,101296.69
2023-05-19T10:20:06.020Z,101294.97
2023-05-19T10:22:35.482Z,101292.38
2023-05-19T10:25:05.206Z,101290.91
2023-05-19T10:27:39.944Z,101295.00
2023-05-19T10:30:51.679Z,101296.28
2023-05-19T10:33:29.781Z,101280.59
2023-05-19T10:36:03.536Z,101293.03
2023-05-19T10:39:19.993Z,101292.78
2023-05-19T10:42:35.661Z,101287.31
2023-05-19T10:45:21.271Z,101274.75
2023-05-19T10:47:52.511Z,101262.88
2023-05-19T10:50:21.940Z,101291.91
2023-05-19T10:52:57.783Z,101270.41
2023-05-19T10:55:54.122Z,101267.28
2023-05-19T10:58:42.251Z,101278.69
2023-05-19T11:01:18.210Z,101283.31
2023-05-19T11:03:52.999Z,101253.72
2023-05-19T11:06:29.923Z,101263.44
2023-05-19T11:09:11.166Z,101240.69
2023-05-19T11:11:55.719Z,101267.28
2023-05-19T11:14:28.083Z,101263.13
2023-05-19T11:17:01.267Z,101244.22
2023-05-19T11:19:32.359Z,101255.94
2023-05-19T11:22:12.246Z,101249.81
2023-05-19T11:24:55.091Z,101239.38
2023-05-19T11:27:28.051Z,101239.78
2023-05-19T11:30:00.028Z,101239.81
2023-05-19T11:32:34.485Z,101254.75
2023-05-19T11:35:03.253Z,101241.09
2023-05-19T11:37:34.125Z,101227.00
2023-05-19T11:40:08.143Z,101203.81
2023-05-19T11:42:37.856Z,101223.97
2023-05-19T11:45:07.944Z,101231.94
2023-05-19T11:47:50.869Z,101222.31
2023-05-19T11:50:26.866Z,101215.97
2023-05-19T11:52:58.386Z,101217.41
2023-05-19T11:55:27.774Z,101209.84
2023-05-19T11:58:03.882Z,101224.84
2023-05-19T12:00:40.257Z,101213.00
2023-05-19T12:03:10.099Z,101220.31
2023-05-19T12:05:43.703Z,101211.56
2023-05-19T12:08:13.952Z,101174.06
2023-05-19T12:10:43.036Z,101196.88
2023-05-19T12:13:12.142Z,101162.28
2023-05-19T12:15:40.926Z,101213.72
2023-05-19T12:18:10.547Z,101199.81
2023-05-19T12:20:40.214Z,101192.44
2023-05-19T12:23:10.644Z,101194.75
2023-05-19T12:25:39.583Z,101203.75
2023-05-19T12:28:08.704Z,101151.63
2023-05-19T12:30:41.011Z,101191.56
2023-05-19T12:33:10.513Z,101191.50
2023-05-19T12:35:39.423Z,101190.91
2023-05-19T12:38:08.771Z,101176.88
2023-05-19T12:40:40.192Z,101198.13
2023-05-19T12:43:10.799Z,101201.28
2023-05-19T12:45:43.284Z,101180.03
2023-05-19T12:48:18.912Z,101189.09
2023-05-19T12:50:48.010Z,101204.50
2023-05-19T12:53:17.223Z,101198.63
2023-05-19T12:55:46.713Z,101180.31
2023-05-19T12:58:17.098Z,101182.66
2023-05-19T13:00:51.326Z,101210.63
2023-05-19T13:03:21.735Z,101202.84
2023-05-19T13:05:52.496Z,101199.06
2023-05-19T13:08:24.988Z,101205.53
2023-05-19T13:10:53.775Z,101192.84
2023-05-19T13:13:22.889Z,101197.72
2023-05-19T13:15:52.017Z,101202.50
2023-05-19T13:18:21.263Z,101181.38
2023-05-19T13:20:52.140Z,101202.88
2023-05-19T13:23:21.476Z,101183.22
2023-05-19T13:25:52.439Z,101144.63
2023-05-19T13:28:21.486Z,101200.47
2023-05-19T13:30:52.342Z,101182.13
2023-05-19T13:33:21.163Z,101204.13
2023-05-19T13:35:50.149Z,101193.25
2023-05-19T13:38:19.640Z,101150.34
2023-05-19T13:40:50.801Z,101200.72
2023-05-19T13:43:19.778Z,101211.22
2023-05-19T13:45:48.698Z,101218.06
2023-05-19T13:48:18.113Z,101193.34
2023-05-19T13:50:48.021Z,101210.72
2023-05-19T13:53:17.008Z,101220.22
2023-05-19T13:55:49.298Z,101193.81
2023-05-19T13:58:20.492Z,101200.28
2023-05-19T14:00:51.896Z,101212.50
2023-05-19T14:03:20.967Z,101167.00
2023-05-19T14:05:50.341Z,101156.84
2023-05-19T14:08:19.943Z,101225.06
2023-05-19T14:10:48.940Z,101195.44
2023-05-19T14:13:32.025Z,101214.97
2023-05-19T14:16:03.310Z,101212.66
2023-05-19T14:18:33.337Z,101227.06
2023-05-19T14:21:02.394Z,101205.66
2023-05-19T14:23:32.021Z,101225.66
2023-05-19T14:26:01.128Z,101202.13
2023-05-19T14:28:35.256Z,101220.91
2023-05-19T14:31:04.466Z,101221.22
2023-05-19T14:33:35.631Z,101202.00
2023-05-19T14:36:06.017Z,101213.03
2023-05-19T14:38:35.343Z,101203.44
2023-05-19T14:41:04.557Z,101217.94
2023-05-19T14:43:34.416Z,101193.13
2023-05-19T14:46:03.279Z,101217.91
2023-05-19T14:48:32.925Z,101226.16
2023-05-19T14:51:02.141Z,101196.44
2023-05-19T14:53:31.117Z,101225.72
2023-05-19T14:56:00.195Z,101215.94
2023-05-19T14:58:29.499Z,101220.34
2023-05-19T15:00:59.991Z,101215.81
2023-05-19T15:03:29.153Z,101220.72
2023-05-19T15:05:58.080Z,101232.47
2023-05-19T15:08:27.498Z,101222.88
2023-05-19T15:10:56.481Z,101219.78
2023-05-19T15:13:26.961Z,101223.22
2023-05-19T15:16:08.242Z,101230.22
2023-05-19T15:18:45.398Z,101233.41
2023-05-19T15:21:14.299Z,101229.09
2023-05-19T15:23:43.756Z,101177.66
2023-05-19T15:26:13.662Z,101240.47
2023-05-19T15:28:42.930Z,101230.19
2023-05-19T15:31:11.987Z,101230.25
2023-05-19T15:33:41.160Z,101238.22
2023-05-19T15:36:10.278Z,101187.47
2023-05-19T15:38:39.184Z,101227.97
2023-05-19T15:41:09.396Z,101235.66
2023-05-19T15:43:38.561Z,101242.53
2023-05-19T15:46:07.682Z,101264.97
2023-05-19T15:48:36.492Z,101221.41
2023-05-19T15:51:05.642Z,101245.31
2023-05-19T15:53:34.918Z,101229.56
2023-05-19T15:56:04.838Z,101241.63
2023-05-19T15:58:33.785Z,101215.41
2023-05-19T16:01:02.999Z,101255.72
2023-05-19T16:03:31.929Z,101252.97
2023-05-19T16:06:03.784Z,101235.84
2023-05-19T16:08:32.862Z,101172.44
2023-05-19T16:11:01.932Z,101228.72
2023-05-19T16:13:31.666Z,101235.38
2023-05-19T16:16:01.034Z,101227.31
2023-05-19T16:18:33.029Z,101232.84
2023-05-19T16:21:01.760Z,101217.81
2023-05-19T16:23:30.954Z,101253.28
2023-05-19T16:26:02.019Z,101258.59
2023-05-19T16:28:31.163Z,101220.56
2023-05-19T16:31:01.301Z,101247.00
2023-05-19T16:33:30.964Z,101238.78
2023-05-19T16:36:03.005Z,101230.75
2023-05-19T16:38:32.064Z,101245.84
2023-05-19T16:41:00.844Z,101213.53
2023-05-19T16:43:29.951Z,101245.78
2023-05-19T16:45:58.739Z,101265.97
2023-05-19T16:48:27.544Z,101255.75
2023-05-19T16:50:56.384Z,101246.00
2023-05-19T16:53:25.567Z,101252.31
2023-05-19T16:55:55.281Z,101250.84
2023-05-19T16:58:24.621Z,101265.59
2023-05-19T17:00:54.008Z,101257.56
2023-05-19T17:03:26.291Z,101262.16
2023-05-19T17:05:55.454Z,101262.16
2023-05-19T17:08:24.362Z,101264.88
2023-05-19T17:10:53.229Z,101188.56
2023-05-19T17:13:22.237Z,101207.72
2023-05-19T17:15:53.705Z,101255.66
2023-05-19T17:18:23.556Z,101248.13
2023-05-19T17:20:52.261Z,101241.50
2023-05-19T17:23:22.388Z,101243.19
2023-05-19T17:25:56.397Z,101230.44
2023-05-19T17:28:25.360Z,101214.38
2023-05-19T17:30:54.513Z,101230.84
2023-05-19T17:33:23.671Z,101242.38
2023-05-19T17:35:55.574Z,101225.09
2023-05-19T17:38:24.807Z,101245.97
2023-05-19T17:40:54.779Z,101247.22
2023-05-19T17:43:23.809Z,101238.53
2023-05-19T17:45:55.362Z,101253.72
2023-05-19T17:48:24.770Z,101254.09
2023-05-19T17:50:53.861Z,101235.13
2023-05-19T17:53:22.952Z,101234.53
2023-05-19T17:55:59.184Z,101240.72
2023-05-19T17:58:29.116Z,101239.84
2023-05-19T18:00:58.228Z,101252.97
2023-05-19T18:03:27.489Z,101203.81
2023-05-19T18:05:56.852Z,101233.97
2023-05-19T18:08:26.572Z,101237.38
2023-05-19T18:10:56.811Z,101238.19
2023-05-19T18:13:26.954Z,101229.44
2023-05-19T18:15:56.000Z,101174.88
2023-05-19T18:18:25.132Z,101225.97
2023-05-19T18:20:55.651Z,101237.44
2023-05-19T18:23:24.622Z,101234.97
2023-05-19T18:25:53.897Z,101240.38
2023-05-19T18:28:23.881Z,101223.81
2023-05-19T18:31:06.013Z,101227.44
2023-05-19T18:33:34.945Z,101215.22
2023-05-19T18:36:03.932Z,101203.28
2023-05-19T18:38:33.552Z,101202.56
2023-05-19T18:41:02.539Z,101231.78
2023-05-19T18:43:33.056Z,101227.00
2023-05-19T18:46:02.029Z,101227.81
2023-05-19T18:48:31.056Z,101169.41
2023-05-19T18:51:00.730Z,101235.16
2023-05-19T18:53:29.589Z,101232.81
2023-05-19T18:55:58.374Z,101219.00
2023-05-19T18:58:27.692Z,101206.81
2023-05-19T19:00:57.207Z,101207.78
2023-05-19T19:03:26.321Z,101236.50
2023-05-19T19:05:59.756Z,101222.03
2023-05-19T19:08:32.264Z,101237.81
2023-05-19T19:11:02.122Z,101164.66
2023-05-19T19:13:31.610Z,101215.69
2023-05-19T19:16:05.931Z,101180.53
2023-05-19T19:18:36.700Z,101236.03
2023-05-19T19:21:06.319Z,101207.03
2023-05-19T19:23:36.371Z,101218.34
2023-05-19T19:26:05.456Z,101223.63
2023-05-19T19:28:34.371Z,101242.81
2023-05-19T19:31:03.299Z,101207.25
2023-05-19T19:33:32.213Z,101221.09
2023-05-19T19:36:02.031Z,101211.59
2023-05-19T19:38:31.014Z,101154.41
2023-05-19T19:40:59.833Z,101206.34
2023-05-19T19:43:28.681Z,101224.31
2023-05-19T19:46:05.201Z,101225.22
2023-05-19T19:48:34.154Z,101220.31
2023-05-19T19:51:03.018Z,101220.47
2023-05-19T19:53:34.288Z,101228.75
2023-05-19T19:56:05.226Z,101227.91
2023-05-19T19:58:34.098Z,101185.56
2023-05-19T20:01:06.942Z,101144.16
2023-05-19T20:03:36.850Z,101219.44
2023-05-19T20:06:08.599Z,101145.38
2023-05-19T20:08:37.638Z,101211.88
2023-05-19T20:11:07.424Z,101148.03
2023-05-19T20:13:36.478Z,101188.69
2023-05-19T20:16:05.334Z,101191.22
2023-05-19T20:18:34.594Z,101137.81
2023-05-19T20:21:03.225Z,101195.63
2023-05-19T20:23:32.612Z,101186.28
2023-05-19T20:28:38.937Z,101199.88
2023-05-19T20:31:10.422Z,101194.66
2023-05-19T20:33:39.601Z,101210.69
2023-05-19T20:36:08.850Z,101202.16
2023-05-19T20:38:37.721Z,101138.09
2023-05-19T20:41:06.432Z,101171.75
2023-05-19T20:43:35.632Z,101198.72
2023-05-19T20:46:05.216Z,101195.34
2023-05-19T20:48:36.280Z,101202.34
2023-05-19T20:51:05.359Z,101193.19
2023-05-19T20:53:34.378Z,101176.69
2023-05-19T20:56:03.320Z,101192.28
2023-05-19T20:58:32.337Z,101114.59
2023-05-19T21:01:01.270Z,101118.03
2023-05-19T21:03:31.431Z,101176.03
2023-05-19T21:06:01.459Z,101200.47
2023-05-19T21:08:30.551Z,101198.72
2023-05-19T21:11:00.171Z,101198.03
2023-05-19T21:13:29.232Z,101180.91
2023-05-19T21:15:58.052Z,101179.31
2023-05-19T21:18:26.937Z,101181.22
2023-05-19T21:20:55.927Z,101180.44
2023-05-19T21:23:24.915Z,101180.44
2023-05-19T21:25:53.944Z,101194.22
2023-05-19T21:28:22.803Z,101183.00
2023-05-19T21:30:51.755Z,101176.06
2023-05-19T21:33:20.600Z,101188.34
2023-05-19T21:35:49.571Z,101168.44
2023-05-19T21:38:23.798Z,101125.47
2023-05-19T21:40:53.974Z,101188.59
2023-05-19T21:43:23.100Z,101159.31
2023-05-19T21:45:51.977Z,101181.72
2023-05-19T21:48:20.924Z,101172.22
2023-05-19T21:50:56.721Z,101166.94
2023-05-19T21:53:26.428Z,101177.25
2023-05-19T21:55:55.467Z,101178.28
2023-05-19T21:58:24.970Z,101193.81
2023-05-19T22:00:57.670Z,101173.00
2023-05-19T22:03:27.074Z,101167.94
2023-05-19T22:05:56.653Z,101188.72
2023-05-19T22:08:26.788Z,101107.44
2023-05-19T22:10:55.951Z,101173.22
2023-05-19T22:13:24.551Z,101124.00
2023-05-19T22:15:53.741Z,101162.06
2023-05-19T22:18:22.893Z,101183.81
2023-05-19T22:20:51.714Z,101185.59
2023-05-19T22:23:20.623Z,101182.16
2023-05-19T22:25:49.564Z,101163.28
2023-05-19T22:28:18.401Z,101180.75
2023-05-19T22:30:47.429Z,101165.19
2023-05-19T22:33:16.348Z,101151.34
2023-05-19T22:35:45.467Z,101177.47
2023-05-19T22:38:14.376Z,101168.88
2023-05-19T22:40:43.328Z,101160.22
2023-05-19T22:43:12.293Z,101141.22
2023-05-19T22:45:41.325Z,101185.44
2023-05-19T22:48:10.132Z,101146.50
2023-05-19T22:50:39.135Z,101156.88
2023-05-19T22:53:08.032Z,101162.16
2023-05-19T22:55:37.053Z,101145.72
2023-05-19T22:58:07.127Z,101167.44
2023-05-19T23:00:36.029Z,101181.41
2023-05-19T23:03:05.149Z,101184.00
2023-05-19T23:05:34.039Z,101188.38
2023-05-19T23:08:03.166Z,101173.75
2023-05-19T23:10:32.192Z,101187.53
2023-05-19T23:13:01.037Z,101171.88
2023-05-19T23:15:29.866Z,101197.16
2023-05-19T23:17:58.882Z,101126.56
2023-05-19T23:20:27.850Z,101161.50
2023-05-19T23:22:56.853Z,101169.44
2023-05-19T23:25:25.759Z,101179.41
2023-05-19T23:27:54.531Z,101187.78
2023-05-19T23:30:23.512Z,101173.16
2023-05-19T23:32:53.788Z,101163.09
2023-05-19T23:35:23.295Z,101171.88
2023-05-19T23:37:52.071Z,101189.16
2023-05-19T23:40:20.951Z,101189.19
2023-05-19T23:42:49.859Z,101188.31
2023-05-19T23:45:18.861Z,101193.16
2023-05-19T23:47:47.692Z,101174.63
2023-05-19T23:50:16.714Z,101199.59
2023-05-19T23:52:45.796Z,101205.16
2023-05-19T23:55:15.817Z,101192.50
2023-05-19T23:57:44.779Z,101193.16
